Portada
METAR-TAF:

METAR-TAF

Aeropuertos :

Amán, Jordania

Aeropuerto Civil de Amán

latitud: 31-59N, longitud: 035-59E, altitud: 767 m

Observación

El informe se hizo hace 35 minutos, a las 20:00 UTC
Viento calma
Temperatura 11°C
Humedad 54%
Presión 1023 hPa
Visibilidad: 7000 m

METAR: OJAM 162000Z 00000KT 7000 NSC 11/02 Q1023 NOSIG

Hora: 22:35 (20:35 UTC)

Pronóstico

El informe se hizo hace 3 horas y 35 minutos, a las 17:00 UTC
Pronóstico válido del 16 a las 18 UTC al 17 a las 24 UTC
Viento 2 kt con dirección variable
Visibilidad: 5000 m
calima
Temporalmente
del 17 a las 02 UTC al 17 a las 07 UTC
Visibilidad: 3000 m
neblina
Evolucionando progresivamente
del 17 a las 08 UTC al 17 a las 10 UTC
Viento 10 kt del este-sureste
Visibilidad: 5000 m
calima

TAF: OJAM 161700Z 1618/1724 VRB02KT 5000 HZ NSC TEMPO 1702/1707 3000 BR BECMG 1708/1710 11010KT 5000 HZ NSC

Observaciones y pronósticos meteorológicos de más de 4000 aeropuertos (mensajes METAR y TAF).

Los puntos amarillos y rojos representan las estaciones disponibles.

Ponga el ratón en el punto deseado para ver el nombre de la estación.

Haga clic para ver las observaciones y los pronósticos meteorológicos.

Para cambiar el mapa : haga clic en los botones verdes con una cruz de color negro para hacer un zoom, en el botón verde con un guión para alejar o en las flechas verdes para mapas adyacentes.


METAR-TAF: